Time;durP1;ratioP1;P1;durP2;ratioP2;P2;SDS_P1;SDS_P2;PMS_P1;PMS_P2;Temp;Humidity;BMP_temperature;BMP_pressure;BME280_temperature;BME280_humidity;BME280_pressure;Samples;Min_cycle;Max_cycle;Signal;HPM_P1;HPM_P2
2023/02/19 00:01:33;;;;;;;3.47;2.30;;;5.90;99.90;;;;;;5081227;28;20465;-67
2023/02/19 00:04:02;;;;;;;4.57;2.43;;;6.00;99.90;;;;;;5081406;28;20541;-66
2023/02/19 00:06:31;;;;;;;7.43;3.67;;;6.00;99.90;;;;;;5081280;28;20474;-67
2023/02/19 00:08:58;;;;;;;6.90;4.00;;;6.00;99.90;;;;;;5080994;28;20454;-66
2023/02/19 00:11:27;;;;;;;9.37;5.07;;;5.90;99.90;;;;;;5081284;28;20545;-67
2023/02/19 00:13:58;;;;;;;6.10;3.80;;;5.90;99.90;;;;;;5081354;28;20480;-68
2023/02/19 00:16:26;;;;;;;5.33;3.30;;;6.00;99.90;;;;;;5081420;28;20552;-69
2023/02/19 00:18:55;;;;;;;4.10;2.83;;;5.90;99.90;;;;;;5080987;28;20454;-67
2023/02/19 00:21:22;;;;;;;3.47;2.93;;;6.00;99.90;;;;;;5081501;28;20466;-67
2023/02/19 00:23:50;;;;;;;3.93;2.50;;;6.00;99.90;;;;;;5080954;28;20915;-67
2023/02/19 00:26:18;;;;;;;2.87;2.53;;;5.90;99.90;;;;;;5080790;28;20485;-67
2023/02/19 00:28:45;;;;;;;3.33;2.60;;;6.00;99.90;;;;;;5081025;28;20457;-67
2023/02/19 00:31:17;;;;;;;2.57;1.90;;;5.90;99.90;;;;;;5082307;28;20470;-67
2023/02/19 00:33:44;;;;;;;3.60;2.70;;;5.90;99.90;;;;;;5080759;28;20447;-67
2023/02/19 00:36:12;;;;;;;4.23;2.60;;;5.90;99.90;;;;;;5081419;28;20450;-66
2023/02/19 00:38:40;;;;;;;4.30;2.40;;;5.90;99.90;;;;;;5081311;28;20561;-66
2023/02/19 00:41:18;;;;;;;4.07;2.33;;;5.90;99.90;;;;;;5080866;28;20883;-67
2023/02/19 00:43:47;;;;;;;2.90;2.27;;;5.90;99.90;;;;;;5080902;28;20512;-67
2023/02/19 00:46:15;;;;;;;3.67;2.47;;;5.80;99.90;;;;;;5080678;28;20577;-67
2023/02/19 00:48:42;;;;;;;3.53;2.30;;;5.90;99.90;;;;;;5080753;28;20454;-67
2023/02/19 00:51:09;;;;;;;3.90;2.60;;;5.80;99.90;;;;;;5081150;28;20453;-66
2023/02/19 00:53:36;;;;;;;4.80;2.83;;;5.90;99.90;;;;;;5080844;28;20453;-66
2023/02/19 00:56:03;;;;;;;5.17;2.30;;;5.90;99.90;;;;;;5080906;28;20519;-66
2023/02/19 00:58:30;;;;;;;3.20;2.17;;;5.80;99.90;;;;;;5081046;28;20759;-66
2023/02/19 01:00:57;;;;;;;3.23;2.50;;;5.80;99.90;;;;;;5080397;28;20845;-67
2023/02/19 01:03:26;;;;;;;3.00;2.30;;;5.80;99.90;;;;;;5080728;28;20553;-66
2023/02/19 01:05:53;;;;;;;3.20;2.47;;;5.90;99.90;;;;;;5081064;28;20454;-67
2023/02/19 01:08:20;;;;;;;3.47;2.80;;;5.90;99.90;;;;;;5080886;28;20489;-66
2023/02/19 01:10:47;;;;;;;4.13;3.53;;;5.90;99.90;;;;;;5079480;28;20458;-66
2023/02/19 01:13:14;;;;;;;4.27;2.40;;;5.80;99.90;;;;;;5079418;28;20518;-67
2023/02/19 01:15:41;;;;;;;3.13;2.50;;;5.80;99.90;;;;;;5080186;28;20822;-66
2023/02/19 01:18:09;;;;;;;3.73;2.80;;;5.80;99.90;;;;;;5077932;28;20451;-67
2023/02/19 01:20:38;;;;;;;3.40;2.80;;;5.80;99.90;;;;;;5077479;28;20792;-67
2023/02/19 01:23:05;;;;;;;4.60;3.23;;;5.90;99.90;;;;;;5077411;28;20468;-66
2023/02/19 01:25:32;;;;;;;6.83;3.63;;;5.80;99.90;;;;;;5077416;28;20794;-67
2023/02/19 01:27:59;;;;;;;4.10;3.10;;;5.90;99.90;;;;;;5077252;28;20478;-67
2023/02/19 01:30:26;;;;;;;8.77;3.70;;;5.80;99.90;;;;;;5077280;28;20472;-66
2023/02/19 01:32:52;;;;;;;5.03;3.40;;;5.70;99.90;;;;;;5077177;28;20454;-66
2023/02/19 01:35:19;;;;;;;4.33;3.17;;;5.80;99.90;;;;;;5077475;28;20540;-67
2023/02/19 01:37:47;;;;;;;5.10;3.90;;;5.80;99.90;;;;;;5077131;28;20528;-66
2023/02/19 01:40:14;;;;;;;4.53;3.10;;;5.80;99.90;;;;;;5077555;28;20454;-66
2023/02/19 01:42:42;;;;;;;5.60;3.57;;;5.80;99.90;;;;;;5076577;28;20566;-67
2023/02/19 01:45:24;;;;;;;4.43;3.47;;;5.80;99.90;;;;;;5076945;28;20458;-66
2023/02/19 01:48:06;;;;;;;2.90;2.60;;;5.80;99.90;;;;;;5076966;28;20805;-67
2023/02/19 01:50:38;;;;;;;4.90;3.57;;;5.80;99.90;;;;;;5076497;28;20890;-67
2023/02/19 01:53:10;;;;;;;4.30;3.63;;;5.80;99.90;;;;;;5076756;28;20520;-67
2023/02/19 01:55:37;;;;;;;4.70;4.13;;;5.70;99.90;;;;;;5076688;28;20542;-66
2023/02/19 01:58:05;;;;;;;5.80;4.30;;;5.60;99.90;;;;;;5076695;28;20450;-66
2023/02/19 02:00:33;;;;;;;6.80;4.50;;;5.70;99.90;;;;;;5077057;28;20464;-66
2023/02/19 02:03:00;;;;;;;7.60;4.77;;;5.70;99.90;;;;;;5076656;28;20471;-66
2023/02/19 02:05:46;;;;;;;6.37;4.77;;;5.70;99.90;;;;;;5076520;28;20545;-68
2023/02/19 02:11:01;;;;;;;7.30;5.57;;;5.80;99.90;;;;;;5075825;28;20438;-66
2023/02/19 02:13:28;;;;;;;7.57;5.03;;;5.90;99.90;;;;;;5075932;28;20560;-65
2023/02/19 02:16:06;;;;;;;6.60;5.20;;;5.80;99.90;;;;;;5076184;28;20468;-67
2023/02/19 02:18:43;;;;;;;6.00;5.40;;;5.80;99.90;;;;;;5076006;28;20897;-66
2023/02/19 02:21:50;;;;;;;7.50;4.90;;;5.70;99.90;;;;;;5075740;28;20442;-67
2023/02/19 02:24:39;;;;;;;6.30;5.67;;;5.70;99.90;;;;;;5069195;28;20458;-67
2023/02/19 02:27:42;;;;;;;7.80;5.60;;;5.70;99.90;;;;;;5075722;28;20472;-68
2023/02/19 02:30:18;;;;;;;6.77;5.03;;;5.60;99.90;;;;;;5069308;28;20768;-67
2023/02/19 02:32:53;;;;;;;10.23;6.23;;;5.70;99.90;;;;;;5075532;28;20533;-67
2023/02/19 02:35:23;;;;;;;8.80;5.93;;;5.70;99.90;;;;;;5075473;28;20445;-67
2023/02/19 02:37:52;;;;;;;6.90;4.93;;;5.70;99.90;;;;;;5075447;28;20450;-67
2023/02/19 02:40:19;;;;;;;13.00;5.60;;;5.70;99.90;;;;;;5075397;28;21028;-66
2023/02/19 02:42:47;;;;;;;6.13;4.10;;;5.60;99.90;;;;;;5075364;28;20474;-65
2023/02/19 02:45:36;;;;;;;6.60;4.80;;;5.50;99.90;;;;;;5075698;28;20462;-67
2023/02/19 02:48:24;;;;;;;6.43;4.27;;;5.70;99.90;;;;;;5075609;28;20858;-67
2023/02/19 02:50:55;;;;;;;4.87;4.10;;;5.60;99.90;;;;;;5075188;28;20441;-68
2023/02/19 02:56:14;;;;;;;6.47;4.90;;;5.50;99.90;;;;;;5075657;28;20418;-66
2023/02/19 02:58:43;;;;;;;8.43;4.60;;;5.50;99.90;;;;;;5075139;28;20435;-66
2023/02/19 03:04:04;;;;;;;7.27;4.83;;;5.50;99.90;;;;;;5075591;28;20425;-67
2023/02/19 03:06:35;;;;;;;12.40;5.40;;;5.50;99.90;;;;;;5075560;28;20434;-67
2023/02/19 03:09:09;;;;;;;6.47;4.77;;;5.50;99.90;;;;;;5075430;28;20529;-66
2023/02/19 03:20:05;;;;;;;9.10;4.77;;;5.30;99.90;;;;;;5078023;28;20422;-67
2023/02/19 03:22:35;;;;;;;8.60;5.27;;;5.30;99.90;;;;;;5079193;28;20808;-67
2023/02/19 03:27:52;;;;;;;7.23;4.33;;;5.00;99.90;;;;;;5075150;28;20465;-66
2023/02/19 03:30:22;;;;;;;11.10;4.87;;;4.90;99.90;;;;;;5074973;28;20549;-66
2023/02/19 03:32:54;;;;;;;9.80;5.60;;;4.80;99.90;;;;;;5074845;28;20442;-66
2023/02/19 03:35:23;;;;;;;9.63;5.07;;;4.80;99.90;;;;;;5075035;28;20525;-67
2023/02/19 03:37:54;;;;;;;8.50;4.93;;;4.90;99.90;;;;;;5074945;28;20852;-66
2023/02/19 03:40:24;;;;;;;7.37;4.60;;;4.90;99.90;;;;;;5075068;28;20442;-66
2023/02/19 03:43:01;;;;;;;7.30;4.17;;;4.80;99.90;;;;;;5034812;28;20458;-66
2023/02/19 03:45:45;;;;;;;8.60;4.50;;;4.80;99.90;;;;;;5034859;28;20450;-67
2023/02/19 03:48:25;;;;;;;8.43;3.47;;;4.60;99.90;;;;;;5034803;28;20917;-67
2023/02/19 03:51:01;;;;;;;8.33;3.20;;;4.70;99.90;;;;;;5034826;28;20454;-65
2023/02/19 03:53:32;;;;;;;4.70;3.00;;;4.50;99.90;;;;;;5034551;28;20445;-66
2023/02/19 03:56:07;;;;;;;7.53;3.20;;;4.40;99.90;;;;;;5034975;28;20444;-67
2023/02/19 03:58:42;;;;;;;4.60;2.53;;;4.40;99.90;;;;;;5034951;28;20519;-66
2023/02/19 04:01:13;;;;;;;5.30;3.20;;;4.30;99.90;;;;;;5034783;28;20454;-66
2023/02/19 04:03:45;;;;;;;9.17;3.17;;;4.20;99.90;;;;;;5034634;28;20522;-66
2023/02/19 04:06:15;;;;;;;4.70;2.57;;;4.20;99.90;;;;;;5034634;28;20448;-66
2023/02/19 04:08:46;;;;;;;5.63;3.53;;;4.20;99.90;;;;;;5034290;28;20483;-67
2023/02/19 04:11:15;;;;;;;4.07;3.17;;;4.10;99.90;;;;;;5034330;28;20923;-67
2023/02/19 04:13:45;;;;;;;5.47;3.27;;;4.10;99.90;;;;;;5034251;28;20956;-66
2023/02/19 04:16:17;;;;;;;6.43;3.70;;;4.10;99.90;;;;;;5034414;28;20466;-67
2023/02/19 04:18:47;;;;;;;6.10;3.00;;;4.00;99.90;;;;;;5034775;28;20494;-67
2023/02/19 04:21:15;;;;;;;5.40;3.03;;;4.00;99.90;;;;;;5034470;28;20466;-66
2023/02/19 04:23:45;;;;;;;9.87;4.07;;;4.00;99.90;;;;;;5034100;28;21020;-66
2023/02/19 04:26:13;;;;;;;4.63;3.30;;;3.90;99.90;;;;;;5034679;28;20460;-66
2023/02/19 04:28:42;;;;;;;4.70;2.90;;;4.00;99.90;;;;;;5034135;28;20484;-65
2023/02/19 04:31:09;;;;;;;9.60;3.67;;;3.90;99.90;;;;;;5034108;28;20456;-70
2023/02/19 04:33:37;;;;;;;8.77;2.70;;;4.00;99.90;;;;;;5034350;28;20460;-69
2023/02/19 04:36:07;;;;;;;6.17;2.40;;;4.00;99.90;;;;;;5036924;28;20786;-69
2023/02/19 04:38:34;;;;;;;6.10;3.40;;;4.10;99.90;;;;;;5038673;28;20450;-69
2023/02/19 04:41:00;;;;;;;9.00;3.40;;;4.00;99.90;;;;;;5047755;28;20972;-68
2023/02/19 04:43:27;;;;;;;6.50;2.47;;;4.00;99.90;;;;;;5077584;28;20942;-66
2023/02/19 04:45:54;;;;;;;3.77;2.77;;;3.90;99.90;;;;;;5077642;28;20457;-66
2023/02/19 04:48:21;;;;;;;7.20;2.37;;;3.90;99.90;;;;;;5077890;28;20513;-66
2023/02/19 04:50:48;;;;;;;9.47;3.37;;;4.00;99.90;;;;;;5077788;28;20765;-66
2023/02/19 04:53:16;;;;;;;3.13;2.23;;;3.90;99.90;;;;;;5077898;28;20460;-66
2023/02/19 04:55:43;;;;;;;7.67;2.93;;;3.80;99.90;;;;;;5077977;28;20779;-66
2023/02/19 04:58:09;;;;;;;9.27;4.10;;;3.80;99.90;;;;;;5077686;28;20460;-66
2023/02/19 05:00:36;;;;;;;6.07;3.30;;;3.80;99.90;;;;;;5077611;28;20469;-66
2023/02/19 05:03:03;;;;;;;7.27;3.20;;;3.90;99.90;;;;;;5077784;28;20493;-66
2023/02/19 05:05:30;;;;;;;5.97;3.20;;;3.80;99.90;;;;;;5077598;28;20460;-66
2023/02/19 05:07:57;;;;;;;8.90;3.87;;;3.80;99.90;;;;;;5077103;28;20969;-67
2023/02/19 05:10:25;;;;;;;5.30;3.17;;;3.70;99.90;;;;;;5077217;28;20458;-67
2023/02/19 05:12:54;;;;;;;5.27;2.97;;;3.80;99.90;;;;;;5077213;28;20454;-66
2023/02/19 05:15:21;;;;;;;7.20;3.37;;;3.80;99.90;;;;;;5077208;28;20454;-67
2023/02/19 05:17:48;;;;;;;8.00;4.30;;;3.70;99.90;;;;;;5077237;28;20787;-66
2023/02/19 05:20:14;;;;;;;5.93;3.80;;;3.60;99.90;;;;;;5076949;28;20551;-67
2023/02/19 05:22:41;;;;;;;7.83;4.00;;;3.60;99.90;;;;;;5077470;28;20458;-66
2023/02/19 05:25:08;;;;;;;11.50;3.73;;;3.70;99.90;;;;;;5077132;28;20464;-66
2023/02/19 05:27:36;;;;;;;8.70;3.77;;;3.70;99.90;;;;;;5077118;28;20489;-67
2023/02/19 05:30:03;;;;;;;7.47;3.50;;;3.70;99.90;;;;;;5076808;28;20454;-67
2023/02/19 05:32:30;;;;;;;5.90;3.90;;;3.60;99.90;;;;;;5077058;28;20545;-66
2023/02/19 05:34:57;;;;;;;9.60;3.80;;;3.60;99.90;;;;;;5076864;28;20549;-67
2023/02/19 05:37:24;;;;;;;7.53;3.37;;;3.70;99.90;;;;;;5077066;28;20454;-66
2023/02/19 05:39:51;;;;;;;5.87;4.33;;;3.70;99.90;;;;;;5076690;28;20459;-69
2023/02/19 05:42:18;;;;;;;5.83;3.90;;;3.80;99.90;;;;;;5076333;28;20496;-69
2023/02/19 05:44:46;;;;;;;6.50;3.97;;;3.80;99.90;;;;;;5098345;28;20544;-69
2023/02/19 05:47:13;;;;;;;6.63;3.60;;;3.80;99.90;;;;;;5096436;28;20541;-69
2023/02/19 05:49:39;;;;;;;7.20;4.00;;;3.90;99.90;;;;;;5096787;28;20481;-69
2023/02/19 05:52:06;;;;;;;5.03;3.53;;;3.90;99.90;;;;;;5097319;28;20793;-69
2023/02/19 05:54:33;;;;;;;8.57;3.60;;;4.00;99.90;;;;;;5097148;28;20902;-69
2023/02/19 05:57:00;;;;;;;8.70;3.40;;;3.80;99.90;;;;;;5096984;28;20548;-68
2023/02/19 05:59:27;;;;;;;9.03;4.10;;;3.80;99.90;;;;;;5097377;28;20465;-69
2023/02/19 06:01:57;;;;;;;8.33;4.10;;;3.70;99.90;;;;;;5096787;28;20453;-68
2023/02/19 06:04:24;;;;;;;6.60;3.67;;;3.70;99.90;;;;;;5097255;28;20760;-69
2023/02/19 06:06:50;;;;;;;5.17;2.87;;;3.60;99.90;;;;;;5093686;28;20778;-69
2023/02/19 06:09:17;;;;;;;7.50;3.43;;;3.70;99.90;;;;;;5077564;28;20478;-69
2023/02/19 06:11:44;;;;;;;4.70;2.80;;;3.60;99.90;;;;;;5077094;28;20462;-68
2023/02/19 06:14:13;;;;;;;6.53;2.83;;;3.70;99.90;;;;;;5076708;28;20464;-69
2023/02/19 06:16:40;;;;;;;4.47;2.97;;;3.80;99.90;;;;;;5076656;28;20797;-69
2023/02/19 06:19:09;;;;;;;5.80;2.00;;;3.80;99.90;;;;;;5076151;28;20545;-69
2023/02/19 06:21:36;;;;;;;3.57;2.40;;;3.70;99.90;;;;;;5076155;28;20541;-69
2023/02/19 06:24:07;;;;;;;5.93;2.90;;;3.60;99.90;;;;;;5075871;28;20950;-68
2023/02/19 06:26:34;;;;;;;8.60;3.00;;;3.60;99.90;;;;;;5076112;28;20453;-69
2023/02/19 06:29:01;;;;;;;6.23;2.50;;;3.60;99.90;;;;;;5075453;28;20974;-68
2023/02/19 06:31:28;;;;;;;5.10;2.50;;;3.60;99.90;;;;;;5075831;28;20464;-69
2023/02/19 06:33:54;;;;;;;5.00;2.97;;;3.60;99.90;;;;;;5075852;28;20454;-69
2023/02/19 06:36:23;;;;;;;9.30;2.53;;;3.50;99.90;;;;;;5075758;28;20454;-69
2023/02/19 06:38:50;;;;;;;5.83;2.57;;;3.50;99.90;;;;;;5075437;28;20930;-68
2023/02/19 06:41:18;;;;;;;4.37;2.80;;;3.50;99.90;;;;;;5075209;28;20578;-69
2023/02/19 06:43:45;;;;;;;7.93;3.00;;;3.50;99.90;;;;;;5075489;28;20454;-69
2023/02/19 06:46:13;;;;;;;3.97;2.40;;;3.40;99.90;;;;;;5076108;28;20458;-69
2023/02/19 06:48:41;;;;;;;5.13;2.50;;;3.50;99.90;;;;;;5075339;28;20482;-68
2023/02/19 06:51:11;;;;;;;5.63;3.03;;;3.40;99.90;;;;;;5075248;28;20454;-69
2023/02/19 06:53:40;;;;;;;8.97;3.63;;;3.40;99.90;;;;;;5075933;28;20549;-69
2023/02/19 06:56:21;;;;;;;6.53;2.93;;;3.40;99.90;;;;;;5075289;28;20974;-69
2023/02/19 06:58:47;;;;;;;9.43;3.37;;;3.50;99.90;;;;;;5075229;28;20746;-68
2023/02/19 07:01:14;;;;;;;5.60;2.90;;;3.40;99.90;;;;;;5075998;28;20454;-69
2023/02/19 07:03:41;;;;;;;6.17;2.80;;;3.50;99.90;;;;;;5076063;28;20814;-69
2023/02/19 07:06:08;;;;;;;9.93;3.70;;;3.40;99.90;;;;;;5076299;28;20863;-69
2023/02/19 07:08:35;;;;;;;5.50;3.40;;;3.50;99.90;;;;;;5076410;28;20477;-68
2023/02/19 07:11:03;;;;;;;9.20;3.97;;;3.50;99.90;;;;;;5075501;28;20465;-69
2023/02/19 07:13:30;;;;;;;6.60;3.43;;;3.50;99.90;;;;;;5075882;28;20497;-69
2023/02/19 07:15:59;;;;;;;6.83;3.30;;;3.40;99.90;;;;;;5075571;28;20465;-69
2023/02/19 07:18:26;;;;;;;7.33;3.57;;;3.40;99.90;;;;;;5075301;28;20948;-69
2023/02/19 07:20:53;;;;;;;6.20;3.10;;;3.40;99.90;;;;;;5075573;28;20454;-69
2023/02/19 07:23:20;;;;;;;5.30;3.50;;;3.40;99.90;;;;;;5075964;28;20847;-69
2023/02/19 07:25:47;;;;;;;6.83;3.30;;;3.30;99.90;;;;;;5075174;28;20454;-69
2023/02/19 07:28:15;;;;;;;5.47;3.00;;;3.30;99.90;;;;;;5074987;28;20809;-69
2023/02/19 07:30:42;;;;;;;8.20;3.30;;;3.40;99.90;;;;;;5075173;28;20451;-69
2023/02/19 07:33:10;;;;;;;4.70;2.77;;;3.40;99.90;;;;;;5075025;28;20544;-69
2023/02/19 07:35:37;;;;;;;4.73;3.10;;;3.30;99.90;;;;;;5075108;28;20458;-69
2023/02/19 07:38:04;;;;;;;3.97;3.10;;;3.30;99.90;;;;;;5074888;28;20538;-69
2023/02/19 07:40:31;;;;;;;8.30;3.57;;;3.40;99.90;;;;;;5074720;28;20540;-69
2023/02/19 07:42:59;;;;;;;5.43;3.20;;;3.50;99.90;;;;;;5074696;28;20439;-69
2023/02/19 07:45:28;;;;;;;6.20;3.63;;;3.50;99.90;;;;;;5075025;28;20891;-69
2023/02/19 07:47:54;;;;;;;4.30;2.90;;;3.50;99.90;;;;;;5074914;28;20485;-69
2023/02/19 07:50:21;;;;;;;7.03;3.00;;;3.50;99.90;;;;;;5074444;28;20496;-69
2023/02/19 07:52:48;;;;;;;5.43;3.30;;;3.50;99.90;;;;;;5074870;28;20450;-69
2023/02/19 07:55:15;;;;;;;4.80;3.10;;;3.50;99.90;;;;;;5074894;28;20640;-69
2023/02/19 07:57:42;;;;;;;7.97;3.70;;;3.50;99.90;;;;;;5075045;28;20846;-70
2023/02/19 08:00:10;;;;;;;4.37;2.80;;;3.50;99.90;;;;;;5074713;28;20460;-69
2023/02/19 08:05:22;;;;;;;6.70;3.20;;;3.50;99.90;;;;;;5075039;28;20429;-69
2023/02/19 08:07:49;;;;;;;5.27;2.77;;;3.60;99.90;;;;;;5074456;28;20961;-70
2023/02/19 08:13:21;;;;;;;7.30;3.63;;;3.50;99.90;;;;;;5078648;28;20515;-69
2023/02/19 08:15:49;;;;;;;8.60;3.23;;;3.50;99.90;;;;;;5078582;28;20454;-69
2023/02/19 08:18:19;;;;;;;4.43;3.13;;;3.60;99.90;;;;;;5078474;28;20484;-69
2023/02/19 08:20:47;;;;;;;4.37;3.03;;;3.60;99.90;;;;;;5078517;28;20484;-69
2023/02/19 08:23:14;;;;;;;15.10;3.67;;;3.60;99.90;;;;;;5078052;28;20541;-69
2023/02/19 08:25:42;;;;;;;5.63;3.10;;;3.60;99.90;;;;;;5078428;28;20454;-69
2023/02/19 08:28:10;;;;;;;5.60;3.23;;;3.70;99.90;;;;;;5078021;28;20468;-69
2023/02/19 08:30:38;;;;;;;6.57;3.37;;;3.70;99.90;;;;;;5077977;28;20464;-69
2023/02/19 08:33:06;;;;;;;5.17;2.63;;;3.70;99.90;;;;;;5078185;28;20454;-69
2023/02/19 08:35:36;;;;;;;9.50;4.70;;;3.70;99.90;;;;;;5078227;28;20454;-69
2023/02/19 08:38:03;;;;;;;10.47;3.40;;;3.70;99.90;;;;;;5078200;28;20458;-69
2023/02/19 08:40:30;;;;;;;7.30;2.90;;;3.80;99.90;;;;;;5078697;28;20537;-69
2023/02/19 08:43:03;;;;;;;7.00;2.50;;;3.80;99.90;;;;;;5077974;28;20453;-69
2023/02/19 08:45:30;;;;;;;3.40;2.50;;;3.80;99.90;;;;;;5077814;28;20453;-69
2023/02/19 08:47:57;;;;;;;6.07;2.70;;;3.90;99.90;;;;;;5077955;28;20548;-69
2023/02/19 08:50:24;;;;;;;7.97;4.00;;;4.00;99.90;;;;;;5077727;28;20478;-69
2023/02/19 08:52:52;;;;;;;11.97;2.90;;;4.10;99.90;;;;;;5077782;28;20454;-69
2023/02/19 08:55:19;;;;;;;6.17;2.53;;;4.20;99.90;;;;;;5077719;28;20454;-69
2023/02/19 08:57:46;;;;;;;3.90;2.90;;;4.30;99.90;;;;;;5077836;28;20532;-69
2023/02/19 09:00:14;;;;;;;8.30;2.13;;;4.20;99.90;;;;;;5077349;28;20549;-69
2023/02/19 09:02:41;;;;;;;5.63;2.30;;;4.30;99.90;;;;;;5077175;28;20458;-69
2023/02/19 09:05:08;;;;;;;5.60;2.97;;;4.50;99.90;;;;;;5077541;28;20464;-69
2023/02/19 09:07:34;;;;;;;4.00;2.37;;;4.50;99.90;;;;;;5077896;28;20494;-69
2023/02/19 09:10:03;;;;;;;9.43;3.03;;;4.60;99.90;;;;;;5077404;28;20478;-69
2023/02/19 09:12:32;;;;;;;9.00;2.63;;;4.70;99.90;;;;;;5077048;28;20464;-68
2023/02/19 09:14:59;;;;;;;12.13;2.80;;;4.70;99.90;;;;;;5077482;28;20835;-68
2023/02/19 09:17:26;;;;;;;10.27;2.77;;;4.80;99.90;;;;;;5077468;28;20548;-68
2023/02/19 09:19:53;;;;;;;4.30;2.33;;;4.80;99.90;;;;;;5077346;28;20462;-68
2023/02/19 09:22:20;;;;;;;4.73;2.10;;;4.80;99.90;;;;;;5076626;28;20458;-69
2023/02/19 09:24:46;;;;;;;6.17;2.07;;;5.00;99.90;;;;;;5088416;28;20534;-68
2023/02/19 09:27:18;;;;;;;5.73;2.10;;;5.00;99.90;;;;;;5097532;28;20766;-69
2023/02/19 09:29:45;;;;;;;4.03;1.90;;;4.90;99.90;;;;;;5097295;28;20562;-69
2023/02/19 09:32:12;;;;;;;8.07;2.57;;;5.00;99.90;;;;;;5097357;28;20468;-69
2023/02/19 09:34:39;;;;;;;8.37;2.53;;;5.10;99.90;;;;;;5095764;28;20467;-69
2023/02/19 09:37:06;;;;;;;7.80;3.00;;;5.10;99.90;;;;;;5097402;28;20518;-69
2023/02/19 09:39:35;;;;;;;6.80;2.47;;;5.10;99.90;;;;;;5097394;28;20454;-69
2023/02/19 09:42:04;;;;;;;5.40;2.07;;;5.20;99.90;;;;;;5097032;28;20481;-69
2023/02/19 09:44:35;;;;;;;7.30;2.13;;;5.30;99.90;;;;;;5087881;28;20545;-69
2023/02/19 09:47:07;;;;;;;5.37;2.00;;;5.30;99.90;;;;;;5076871;28;20445;-70
2023/02/19 09:49:36;;;;;;;4.40;1.83;;;5.20;99.90;;;;;;5076570;28;20466;-68
2023/02/19 09:52:11;;;;;;;4.93;1.73;;;5.20;99.90;;;;;;5076582;28;20458;-69
2023/02/19 09:54:40;;;;;;;5.67;2.00;;;5.20;99.90;;;;;;5076434;28;20511;-69
2023/02/19 09:57:14;;;;;;;11.70;2.10;;;5.20;99.90;;;;;;5076485;28;20510;-70
2023/02/19 09:59:46;;;;;;;5.93;2.17;;;5.10;99.90;;;;;;5076671;28;20438;-68
2023/02/19 10:02:16;;;;;;;5.60;2.03;;;5.20;99.90;;;;;;5076624;28;20525;-69
2023/02/19 10:04:44;;;;;;;5.90;2.10;;;5.30;99.90;;;;;;5076374;28;20457;-68
2023/02/19 10:07:13;;;;;;;5.10;1.93;;;5.30;99.90;;;;;;5076674;28;20464;-69
2023/02/19 10:09:40;;;;;;;11.50;2.30;;;5.40;99.90;;;;;;5076432;28;20988;-68
2023/02/19 10:12:15;;;;;;;4.53;1.90;;;5.40;99.90;;;;;;5076612;28;20561;-69
2023/02/19 10:14:47;;;;;;;4.83;1.80;;;5.40;99.90;;;;;;5076623;28;20457;-68
2023/02/19 10:17:22;;;;;;;7.13;2.00;;;5.40;99.90;;;;;;5076435;28;20439;-69
2023/02/19 10:19:49;;;;;;;10.77;2.20;;;5.40;99.90;;;;;;5076490;28;20445;-69
2023/02/19 10:22:17;;;;;;;4.80;1.60;;;5.40;99.90;;;;;;5076334;28;20544;-69
2023/02/19 10:24:45;;;;;;;9.23;5.43;;;5.40;99.90;;;;;;5075697;28;20557;-68
2023/02/19 10:27:13;;;;;;;3.67;1.73;;;5.50;99.90;;;;;;5076036;28;20454;-68
2023/02/19 10:29:40;;;;;;;6.50;1.63;;;5.60;99.90;;;;;;5075526;28;21036;-69
2023/02/19 10:32:19;;;;;;;5.27;1.90;;;5.50;99.90;;;;;;5075205;28;20459;-69
2023/02/19 10:34:46;;;;;;;5.63;1.70;;;5.50;99.90;;;;;;5076026;28;20470;-69
2023/02/19 10:37:16;;;;;;;6.40;1.70;;;5.50;99.90;;;;;;5075469;28;20469;-69
2023/02/19 10:39:46;;;;;;;6.30;1.60;;;5.60;99.90;;;;;;5076013;28;20505;-69
2023/02/19 10:42:18;;;;;;;6.73;1.57;;;5.70;99.90;;;;;;5075534;28;20792;-69
2023/02/19 10:44:47;;;;;;;5.53;2.93;;;5.70;99.90;;;;;;5076357;28;20459;-70
2023/02/19 10:47:22;;;;;;;5.30;2.13;;;5.80;99.90;;;;;;5075596;28;20458;-69
2023/02/19 10:49:51;;;;;;;3.83;1.47;;;5.90;99.90;;;;;;5075552;28;20466;-69
2023/02/19 10:52:22;;;;;;;2.90;1.83;;;5.90;99.90;;;;;;5075457;28;20776;-69
2023/02/19 10:54:52;;;;;;;4.30;1.43;;;6.00;99.90;;;;;;5075700;28;20533;-69
2023/02/19 10:57:31;;;;;;;4.87;1.47;;;6.00;99.90;;;;;;5076128;28;20469;-69
2023/02/19 11:00:01;;;;;;;6.93;1.97;;;5.90;99.90;;;;;;5076096;28;20486;-69
2023/02/19 11:02:30;;;;;;;9.67;2.13;;;5.90;99.90;;;;;;5075713;28;20462;-69
2023/02/19 11:05:18;;;;;;;6.33;1.50;;;5.90;99.90;;;;;;5075624;28;20458;-68
2023/02/19 11:07:48;;;;;;;3.10;1.43;;;5.90;99.90;;;;;;5075558;28;20442;-69
2023/02/19 11:10:25;;;;;;;7.53;2.10;;;6.00;99.90;;;;;;5075664;28;20765;-68
2023/02/19 11:12:55;;;;;;;3.50;1.70;;;6.10;99.90;;;;;;5075250;28;20442;-68
2023/02/19 11:15:25;;;;;;;2.27;1.20;;;6.10;99.90;;;;;;5074937;28;20491;-69
2023/02/19 11:17:59;;;;;;;2.57;1.60;;;6.10;99.90;;;;;;5075486;28;20515;-68
2023/02/19 11:20:27;;;;;;;5.30;1.90;;;6.10;99.90;;;;;;5075514;28;20444;-69
2023/02/19 11:22:59;;;;;;;5.60;1.43;;;6.10;99.90;;;;;;5075278;28;20501;-69
2023/02/19 11:25:26;;;;;;;2.37;1.30;;;6.20;99.90;;;;;;5074919;28;20443;-69
2023/02/19 11:27:57;;;;;;;3.60;1.67;;;6.30;99.90;;;;;;5074914;28;20464;-68
2023/02/19 11:30:40;;;;;;;4.17;1.10;;;6.30;99.90;;;;;;5075542;28;20796;-69
2023/02/19 11:33:26;;;;;;;4.60;1.43;;;6.30;99.90;;;;;;5074612;28;20471;-69
2023/02/19 11:35:58;;;;;;;7.23;1.70;;;6.30;99.90;;;;;;5075002;28;20751;-69
2023/02/19 11:38:25;;;;;;;3.23;1.30;;;6.30;99.90;;;;;;5074892;28;20447;-68
2023/02/19 11:41:03;;;;;;;6.00;1.60;;;6.40;99.90;;;;;;5074746;28;20521;-69
2023/02/19 11:44:00;;;;;;;2.37;1.50;;;6.50;99.90;;;;;;5074563;28;20511;-70
2023/02/19 11:46:37;;;;;;;3.17;1.23;;;6.60;99.90;;;;;;5073467;28;20545;-69
2023/02/19 11:49:21;;;;;;;2.53;1.00;;;6.70;99.90;;;;;;5075260;28;20751;-69
2023/02/19 11:52:11;;;;;;;3.60;1.53;;;6.90;99.90;;;;;;5075005;28;20772;-69
2023/02/19 11:54:51;;;;;;;6.30;1.80;;;7.00;99.90;;;;;;5074319;28;20521;-69
2023/02/19 11:57:34;;;;;;;5.47;1.60;;;7.10;99.90;;;;;;5074599;28;20442;-69
2023/02/19 12:00:15;;;;;;;2.47;1.40;;;7.20;99.90;;;;;;5074362;28;20534;-69
2023/02/19 12:03:10;;;;;;;5.17;2.50;;;7.20;99.90;;;;;;5074122;28;20474;-70
2023/02/19 12:05:50;;;;;;;5.23;1.70;;;7.20;99.90;;;;;;5072245;28;20996;-69
2023/02/19 12:08:44;;;;;;;2.77;2.23;;;7.40;99.90;;;;;;5075026;28;20438;-69
2023/02/19 12:11:43;;;;;;;2.43;1.40;;;7.90;99.90;;;;;;5074849;28;20470;-69
2023/02/19 12:14:44;;;;;;;4.37;2.13;;;8.80;99.90;;;;;;5067989;28;20957;-69
2023/02/19 12:17:19;;;;;;;2.60;1.40;;;10.20;99.90;;;;;;5074858;28;20540;-69
2023/02/19 12:19:59;;;;;;;2.80;1.33;;;10.40;99.90;;;;;;5074297;28;20444;-70
2023/02/19 12:22:30;;;;;;;3.50;1.23;;;9.80;99.90;;;;;;5073801;28;20434;-69
2023/02/19 12:25:33;;;;;;;7.50;2.37;;;9.30;99.90;;;;;;5074306;28;20442;-69
2023/02/19 12:28:14;;;;;;;3.87;1.43;;;9.20;99.90;;;;;;5074175;28;20497;-69
2023/02/19 12:31:01;;;;;;;6.03;1.50;;;9.90;99.90;;;;;;5074335;28;20467;-69
2023/02/19 12:33:48;;;;;;;6.37;2.27;;;10.80;99.90;;;;;;5074344;28;20452;-69
2023/02/19 12:36:26;;;;;;;3.60;1.30;;;11.70;99.90;;;;;;5074248;28;20847;-69
2023/02/19 12:39:05;;;;;;;2.83;1.30;;;12.60;99.20;;;;;;5074105;28;20771;-69
2023/02/19 12:41:42;;;;;;;3.10;1.40;;;13.30;95.20;;;;;;5073669;28;20978;-69
2023/02/19 12:44:13;;;;;;;2.17;1.37;;;13.50;86.60;;;;;;5074219;28;20442;-68
2023/02/19 12:46:43;;;;;;;4.40;1.53;;;13.30;77.90;;;;;;5073710;28;20526;-68
2023/02/19 12:49:15;;;;;;;1.83;0.97;;;13.10;77.80;;;;;;5073737;28;20486;-70
2023/02/19 12:51:47;;;;;;;5.83;1.03;;;11.90;76.20;;;;;;5073898;28;20565;-69
2023/02/19 12:54:23;;;;;;;3.00;1.10;;;12.00;80.40;;;;;;5074092;28;20879;-69
2023/02/19 12:56:54;;;;;;;2.70;1.30;;;11.70;81.30;;;;;;5075978;28;20438;-69
2023/02/19 12:59:27;;;;;;;2.93;1.30;;;12.40;78.80;;;;;;5077284;28;20938;-70
2023/02/19 13:01:59;;;;;;;4.20;1.13;;;12.80;75.40;;;;;;5077408;28;20491;-69
2023/02/19 13:04:34;;;;;;;1.60;1.10;;;12.90;73.30;;;;;;5077144;28;20778;-69
2023/02/19 13:07:05;;;;;;;3.17;1.30;;;13.50;74.80;;;;;;5078293;28;20760;-69
2023/02/19 13:09:38;;;;;;;6.17;1.80;;;14.20;72.50;;;;;;5077250;28;20457;-70
2023/02/19 13:12:11;;;;;;;2.77;1.30;;;14.30;66.20;;;;;;5077480;28;20477;-65
2023/02/19 13:14:42;;;;;;;5.10;2.50;;;14.30;66.30;;;;;;5076940;28;20534;-67
2023/02/19 13:17:21;;;;;;;3.23;1.10;;;14.50;62.30;;;;;;5077140;28;20530;-66
2023/02/19 13:19:51;;;;;;;7.97;1.57;;;14.10;59.60;;;;;;5077155;28;20442;-66
2023/02/19 13:25:12;;;;;;;3.00;1.10;;;13.90;59.20;;;;;;5076993;28;20564;-66
2023/02/19 13:28:06;;;;;;;4.13;0.97;;;13.20;59.50;;;;;;5076925;28;20541;-66
2023/02/19 13:31:04;;;;;;;2.30;1.00;;;11.30;64.40;;;;;;5059245;28;20565;-67
2023/02/19 13:33:42;;;;;;;3.63;1.47;;;10.20;70.40;;;;;;5073370;28;20962;-65
2023/02/19 13:36:15;;;;;;;4.13;1.47;;;9.80;79.50;;;;;;5077589;28;20442;-66
2023/02/19 13:38:44;;;;;;;3.73;1.90;;;9.60;82.70;;;;;;5077087;28;20480;-65
2023/02/19 13:41:26;;;;;;;3.20;1.27;;;9.80;80.10;;;;;;5076702;28;20478;-66
2023/02/19 13:44:04;;;;;;;3.80;1.20;;;9.40;77.90;;;;;;5076769;28;20439;-65